sensor_id;sensor_type;location;lat;lon;timestamp;pressure;altitude;pressure_sealevel;temperature;humidity
55486;BME280;49383;-25.924;28.194;2022-09-28T00:00:01;85703.90;;;21.91;33.55
55486;BME280;49383;-25.924;28.194;2022-09-28T00:02:26;85706.06;;;21.39;33.80
55486;BME280;49383;-25.924;28.194;2022-09-28T00:04:51;85701.94;;;22.31;35.23
55486;BME280;49383;-25.924;28.194;2022-09-28T00:07:17;85698.52;;;22.04;35.44
55486;BME280;49383;-25.924;28.194;2022-09-28T00:09:42;85693.09;;;21.27;33.79
55486;BME280;49383;-25.924;28.194;2022-09-28T00:12:08;85693.95;;;21.42;33.59
55486;BME280;49383;-25.924;28.194;2022-09-28T00:14:34;85692.23;;;21.74;33.61
55486;BME280;49383;-25.924;28.194;2022-09-28T00:16:59;85694.34;;;21.63;33.55
55486;BME280;49383;-25.924;28.194;2022-09-28T00:19:24;85693.25;;;21.87;33.50
55486;BME280;49383;-25.924;28.194;2022-09-28T00:21:49;85691.40;;;21.65;33.59
55486;BME280;49383;-25.924;28.194;2022-09-28T00:24:14;85691.57;;;21.82;33.27
55486;BME280;49383;-25.924;28.194;2022-09-28T00:26:42;85690.78;;;21.83;33.34
55486;BME280;49383;-25.924;28.194;2022-09-28T00:29:06;85691.03;;;21.94;33.56
55486;BME280;49383;-25.924;28.194;2022-09-28T00:31:32;85685.47;;;21.61;33.62
55486;BME280;49383;-25.924;28.194;2022-09-28T00:33:57;85682.19;;;21.72;33.22
55486;BME280;49383;-25.924;28.194;2022-09-28T00:36:22;85681.35;;;21.62;33.04
55486;BME280;49383;-25.924;28.194;2022-09-28T00:38:47;85679.35;;;21.36;33.26
55486;BME280;49383;-25.924;28.194;2022-09-28T00:41:13;85681.88;;;21.51;33.43
55486;BME280;49383;-25.924;28.194;2022-09-28T00:43:38;85677.35;;;21.53;33.56
55486;BME280;49383;-25.924;28.194;2022-09-28T00:46:05;85677.92;;;21.32;33.58
55486;BME280;49383;-25.924;28.194;2022-09-28T00:48:33;85677.62;;;21.59;33.61
55486;BME280;49383;-25.924;28.194;2022-09-28T00:50:54;85678.96;;;21.59;33.40
55486;BME280;49383;-25.924;28.194;2022-09-28T00:53:22;85678.05;;;21.83;33.43
55486;BME280;49383;-25.924;28.194;2022-09-28T00:55:47;85676.78;;;21.90;33.68
55486;BME280;49383;-25.924;28.194;2022-09-28T00:58:13;85675.59;;;21.13;34.01
55486;BME280;49383;-25.924;28.194;2022-09-28T01:00:36;85675.50;;;21.45;33.89
55486;BME280;49383;-25.924;28.194;2022-09-28T01:03:02;85673.38;;;21.76;33.85
55486;BME280;49383;-25.924;28.194;2022-09-28T01:05:27;85673.46;;;21.63;33.75
55486;BME280;49383;-25.924;28.194;2022-09-28T01:07:54;85671.43;;;21.44;33.90
55486;BME280;49383;-25.924;28.194;2022-09-28T01:10:18;85672.85;;;21.72;33.62
55486;BME280;49383;-25.924;28.194;2022-09-28T01:12:43;85673.80;;;21.83;33.84
55486;BME280;49383;-25.924;28.194;2022-09-28T01:15:09;85672.46;;;21.93;33.71
55486;BME280;49383;-25.924;28.194;2022-09-28T01:17:45;85672.08;;;21.38;34.00
55486;BME280;49383;-25.924;28.194;2022-09-28T01:20:09;85671.56;;;21.63;34.00
55486;BME280;49383;-25.924;28.194;2022-09-28T01:22:35;85672.23;;;21.73;33.91
55486;BME280;49383;-25.924;28.194;2022-09-28T01:24:56;85675.18;;;21.59;33.75
55486;BME280;49383;-25.924;28.194;2022-09-28T01:27:18;85677.79;;;21.62;33.71
55486;BME280;49383;-25.924;28.194;2022-09-28T01:29:46;85672.96;;;21.64;33.68
55486;BME280;49383;-25.924;28.194;2022-09-28T01:32:14;85672.83;;;21.85;33.71
55486;BME280;49383;-25.924;28.194;2022-09-28T01:34:38;85671.63;;;21.40;33.93
55486;BME280;49383;-25.924;28.194;2022-09-28T01:37:01;85671.32;;;21.79;33.72
55486;BME280;49383;-25.924;28.194;2022-09-28T01:39:27;85671.86;;;21.51;33.76
55486;BME280;49383;-25.924;28.194;2022-09-28T01:41:51;85671.39;;;21.82;33.68
55486;BME280;49383;-25.924;28.194;2022-09-28T01:44:18;85670.56;;;21.61;33.90
55486;BME280;49383;-25.924;28.194;2022-09-28T01:46:42;85673.97;;;21.74;33.77
55486;BME280;49383;-25.924;28.194;2022-09-28T01:49:11;85674.43;;;21.34;33.89
55486;BME280;49383;-25.924;28.194;2022-09-28T01:51:34;85677.02;;;21.33;33.88
55486;BME280;49383;-25.924;28.194;2022-09-28T01:54:00;85676.06;;;21.45;34.04
55486;BME280;49383;-25.924;28.194;2022-09-28T01:56:25;85678.56;;;21.69;33.82
55486;BME280;49383;-25.924;28.194;2022-09-28T01:58:50;85675.80;;;21.63;33.85
55486;BME280;49383;-25.924;28.194;2022-09-28T02:01:15;85676.75;;;21.37;34.11
55486;BME280;49383;-25.924;28.194;2022-09-28T02:03:40;85678.91;;;21.53;33.90
55486;BME280;49383;-25.924;28.194;2022-09-28T02:06:08;85677.94;;;21.54;33.86
55486;BME280;49383;-25.924;28.194;2022-09-28T02:08:32;85679.62;;;21.37;34.04
55486;BME280;49383;-25.924;28.194;2022-09-28T02:10:59;85679.30;;;21.38;34.02
55486;BME280;49383;-25.924;28.194;2022-09-28T02:13:23;85678.33;;;21.51;33.80
55486;BME280;49383;-25.924;28.194;2022-09-28T02:15:50;85681.89;;;21.06;34.00
55486;BME280;49383;-25.924;28.194;2022-09-28T02:18:11;85685.79;;;21.11;33.94
55486;BME280;49383;-25.924;28.194;2022-09-28T02:20:39;85688.55;;;21.38;33.89
55486;BME280;49383;-25.924;28.194;2022-09-28T02:23:04;85687.86;;;21.04;33.99
55486;BME280;49383;-25.924;28.194;2022-09-28T02:25:32;85685.79;;;21.42;33.80
55486;BME280;49383;-25.924;28.194;2022-09-28T02:27:57;85683.85;;;21.23;33.97
55486;BME280;49383;-25.924;28.194;2022-09-28T02:30:19;85687.66;;;21.37;33.86
55486;BME280;49383;-25.924;28.194;2022-09-28T02:32:47;85693.42;;;21.16;33.81
55486;BME280;49383;-25.924;28.194;2022-09-28T02:35:14;85695.35;;;21.34;33.88
55486;BME280;49383;-25.924;28.194;2022-09-28T02:37:36;85695.81;;;21.41;33.80
55486;BME280;49383;-25.924;28.194;2022-09-28T02:40:07;85699.13;;;20.97;34.00
55486;BME280;49383;-25.924;28.194;2022-09-28T02:42:32;85706.20;;;21.20;33.98
55486;BME280;49383;-25.924;28.194;2022-09-28T02:45:03;85704.83;;;21.28;33.91
55486;BME280;49383;-25.924;28.194;2022-09-28T02:47:24;85704.29;;;21.02;33.88
55486;BME280;49383;-25.924;28.194;2022-09-28T02:49:49;85707.73;;;21.19;33.94
55486;BME280;49383;-25.924;28.194;2022-09-28T02:52:20;85707.69;;;21.02;34.13
55486;BME280;49383;-25.924;28.194;2022-09-28T02:54:47;85704.64;;;21.27;33.81
55486;BME280;49383;-25.924;28.194;2022-09-28T02:57:11;85707.11;;;20.98;33.85
55486;BME280;49383;-25.924;28.194;2022-09-28T02:59:37;85709.20;;;21.21;33.85
55486;BME280;49383;-25.924;28.194;2022-09-28T03:01:55;85705.41;;;21.25;33.82
55486;BME280;49383;-25.924;28.194;2022-09-28T03:04:25;85710.18;;;20.88;33.99
55486;BME280;49383;-25.924;28.194;2022-09-28T03:06:46;85713.75;;;20.90;33.94
55486;BME280;49383;-25.924;28.194;2022-09-28T03:09:10;85714.42;;;21.05;33.80
55486;BME280;49383;-25.924;28.194;2022-09-28T03:11:36;85715.86;;;21.18;33.64
55486;BME280;49383;-25.924;28.194;2022-09-28T03:13:59;85720.77;;;20.94;33.90
55486;BME280;49383;-25.924;28.194;2022-09-28T03:16:24;85721.59;;;21.20;33.91
55486;BME280;49383;-25.924;28.194;2022-09-28T03:18:49;85726.48;;;21.01;33.83
55486;BME280;49383;-25.924;28.194;2022-09-28T03:21:15;85725.67;;;21.35;33.75
55486;BME280;49383;-25.924;28.194;2022-09-28T03:23:40;85726.72;;;20.98;33.82
55486;BME280;49383;-25.924;28.194;2022-09-28T03:26:07;85730.47;;;21.16;33.92
55486;BME280;49383;-25.924;28.194;2022-09-28T03:28:31;85731.91;;;21.22;33.80
55486;BME280;49383;-25.924;28.194;2022-09-28T03:30:57;85733.40;;;21.00;34.08
55486;BME280;49383;-25.924;28.194;2022-09-28T03:33:22;85734.33;;;21.01;34.07
55486;BME280;49383;-25.924;28.194;2022-09-28T03:35:49;85731.89;;;20.96;34.12
55486;BME280;49383;-25.924;28.194;2022-09-28T03:38:13;85735.11;;;21.04;33.99
55486;BME280;49383;-25.924;28.194;2022-09-28T03:40:38;85739.32;;;20.93;34.19
55486;BME280;49383;-25.924;28.194;2022-09-28T03:43:04;85743.29;;;20.95;34.16
55486;BME280;49383;-25.924;28.194;2022-09-28T03:45:29;85747.27;;;20.91;34.17
55486;BME280;49383;-25.924;28.194;2022-09-28T03:47:55;85751.37;;;21.13;33.93
55486;BME280;49383;-25.924;28.194;2022-09-28T03:50:20;85752.57;;;20.88;33.91
55486;BME280;49383;-25.924;28.194;2022-09-28T03:52:46;85753.22;;;21.02;33.95
55486;BME280;49383;-25.924;28.194;2022-09-28T03:55:11;85758.49;;;21.12;33.90
55486;BME280;49383;-25.924;28.194;2022-09-28T03:57:37;85761.22;;;20.97;34.07
55486;BME280;49383;-25.924;28.194;2022-09-28T04:00:03;85762.49;;;20.90;34.14
55486;BME280;49383;-25.924;28.194;2022-09-28T04:02:28;85765.70;;;21.03;33.96
55486;BME280;49383;-25.924;28.194;2022-09-28T04:04:53;85768.44;;;20.96;34.02
55486;BME280;49383;-25.924;28.194;2022-09-28T04:07:18;85771.12;;;20.71;34.01
55486;BME280;49383;-25.924;28.194;2022-09-28T04:09:44;85772.92;;;21.04;33.91
55486;BME280;49383;-25.924;28.194;2022-09-28T04:12:10;85777.47;;;20.87;34.14
55486;BME280;49383;-25.924;28.194;2022-09-28T04:14:35;85781.08;;;21.02;34.21
55486;BME280;49383;-25.924;28.194;2022-09-28T04:17:01;85784.76;;;20.86;34.14
55486;BME280;49383;-25.924;28.194;2022-09-28T04:19:26;85785.98;;;21.07;33.84
55486;BME280;49383;-25.924;28.194;2022-09-28T04:21:52;85790.82;;;20.85;34.02
55486;BME280;49383;-25.924;28.194;2022-09-28T04:24:17;85792.95;;;20.93;33.90
55486;BME280;49383;-25.924;28.194;2022-09-28T04:26:43;85797.22;;;20.83;33.97
55486;BME280;49383;-25.924;28.194;2022-09-28T04:29:09;85800.17;;;20.82;34.00
55486;BME280;49383;-25.924;28.194;2022-09-28T04:31:38;85801.54;;;20.74;33.76
55486;BME280;49383;-25.924;28.194;2022-09-28T04:33:59;85801.04;;;20.96;33.77
55486;BME280;49383;-25.924;28.194;2022-09-28T04:36:25;85803.87;;;20.69;33.76
55486;BME280;49383;-25.924;28.194;2022-09-28T04:38:50;85806.49;;;21.26;33.49
55486;BME280;49383;-25.924;28.194;2022-09-28T04:41:15;85806.77;;;20.90;33.78
55486;BME280;49383;-25.924;28.194;2022-09-28T04:43:41;85809.08;;;21.04;33.73
55486;BME280;49383;-25.924;28.194;2022-09-28T04:46:06;85813.48;;;20.90;33.91
55486;BME280;49383;-25.924;28.194;2022-09-28T04:48:32;85812.48;;;20.91;33.94
55486;BME280;49383;-25.924;28.194;2022-09-28T04:50:58;85813.15;;;21.18;33.77
55486;BME280;49383;-25.924;28.194;2022-09-28T04:53:23;85815.96;;;21.19;33.82
55486;BME280;49383;-25.924;28.194;2022-09-28T04:55:54;85815.33;;;20.96;34.09
55486;BME280;49383;-25.924;28.194;2022-09-28T04:58:13;85814.17;;;21.20;33.91
55486;BME280;49383;-25.924;28.194;2022-09-28T05:00:39;85818.82;;;21.02;34.22
55486;BME280;49383;-25.924;28.194;2022-09-28T05:03:04;85825.32;;;20.64;33.49
55486;BME280;49383;-25.924;28.194;2022-09-28T05:05:29;85826.99;;;20.97;32.48
55486;BME280;49383;-25.924;28.194;2022-09-28T05:07:57;85828.57;;;21.22;31.85
55486;BME280;49383;-25.924;28.194;2022-09-28T05:10:20;85831.40;;;20.78;31.79
55486;BME280;49383;-25.924;28.194;2022-09-28T05:12:46;85832.99;;;20.81;31.58
55486;BME280;49383;-25.924;28.194;2022-09-28T05:15:12;85838.59;;;20.90;31.40
55486;BME280;49383;-25.924;28.194;2022-09-28T05:17:37;85839.88;;;21.23;31.27
55486;BME280;49383;-25.924;28.194;2022-09-28T05:20:03;85848.68;;;21.29;31.10
55486;BME280;49383;-25.924;28.194;2022-09-28T05:22:28;85850.60;;;21.01;31.30
55486;BME280;49383;-25.924;28.194;2022-09-28T05:24:53;85856.40;;;20.81;31.26
55486;BME280;49383;-25.924;28.194;2022-09-28T05:27:19;85854.29;;;21.07;31.00
55486;BME280;49383;-25.924;28.194;2022-09-28T05:29:44;85858.32;;;21.14;30.86
55486;BME280;49383;-25.924;28.194;2022-09-28T05:32:10;85860.24;;;20.92;30.84
55486;BME280;49383;-25.924;28.194;2022-09-28T05:34:35;85862.62;;;21.16;30.62
55486;BME280;49383;-25.924;28.194;2022-09-28T05:37:01;85865.19;;;21.07;30.65
55486;BME280;49383;-25.924;28.194;2022-09-28T05:39:27;85867.98;;;21.14;30.53
55486;BME280;49383;-25.924;28.194;2022-09-28T05:41:52;85870.40;;;21.15;30.55
55486;BME280;49383;-25.924;28.194;2022-09-28T05:44:17;85875.67;;;20.95;30.78
55486;BME280;49383;-25.924;28.194;2022-09-28T05:46:43;85880.19;;;21.21;30.63
55486;BME280;49383;-25.924;28.194;2022-09-28T05:49:08;85889.36;;;21.03;30.44
55486;BME280;49383;-25.924;28.194;2022-09-28T05:51:34;85898.95;;;21.51;30.46
55486;BME280;49383;-25.924;28.194;2022-09-28T05:54:00;85902.67;;;21.30;30.89
55486;BME280;49383;-25.924;28.194;2022-09-28T05:56:25;85901.24;;;21.31;31.86
55486;BME280;49383;-25.924;28.194;2022-09-28T05:58:51;85902.64;;;21.51;31.79
55486;BME280;49383;-25.924;28.194;2022-09-28T06:01:17;85906.77;;;21.31;31.58
55486;BME280;49383;-25.924;28.194;2022-09-28T06:03:42;85910.01;;;21.37;31.65
55486;BME280;49383;-25.924;28.194;2022-09-28T06:06:08;85906.92;;;21.22;31.49
55486;BME280;49383;-25.924;28.194;2022-09-28T06:08:33;85910.11;;;21.46;31.47
55486;BME280;49383;-25.924;28.194;2022-09-28T06:10:59;85910.93;;;21.24;31.57
55486;BME280;49383;-25.924;28.194;2022-09-28T06:13:24;85916.27;;;21.47;31.90
55486;BME280;49383;-25.924;28.194;2022-09-28T06:15:50;85915.02;;;21.53;31.80
55486;BME280;49383;-25.924;28.194;2022-09-28T06:18:15;85916.25;;;21.43;31.81
55486;BME280;49383;-25.924;28.194;2022-09-28T06:20:41;85917.26;;;21.59;31.62
55486;BME280;49383;-25.924;28.194;2022-09-28T06:23:06;85913.51;;;21.75;31.69
55486;BME280;49383;-25.924;28.194;2022-09-28T06:25:31;85908.24;;;21.30;32.08
55486;BME280;49383;-25.924;28.194;2022-09-28T06:27:59;85910.20;;;21.58;32.04
55486;BME280;49383;-25.924;28.194;2022-09-28T06:30:22;85907.50;;;21.39;32.02
55486;BME280;49383;-25.924;28.194;2022-09-28T06:32:48;85907.63;;;21.80;31.97
55486;BME280;49383;-25.924;28.194;2022-09-28T06:35:13;85905.79;;;21.21;32.29
55486;BME280;49383;-25.924;28.194;2022-09-28T06:37:38;85911.03;;;21.50;32.31
55486;BME280;49383;-25.924;28.194;2022-09-28T06:40:04;85914.60;;;21.74;32.06
55486;BME280;49383;-25.924;28.194;2022-09-28T06:42:28;85915.17;;;21.71;32.17
55486;BME280;49383;-25.924;28.194;2022-09-28T06:44:54;85919.61;;;21.57;32.58
55486;BME280;49383;-25.924;28.194;2022-09-28T06:47:19;85918.39;;;21.29;32.30
55486;BME280;49383;-25.924;28.194;2022-09-28T06:49:45;85917.78;;;21.27;32.45
55486;BME280;49383;-25.924;28.194;2022-09-28T06:52:11;85912.27;;;21.59;32.08
55486;BME280;49383;-25.924;28.194;2022-09-28T06:54:35;85912.68;;;21.51;33.46
55486;BME280;49383;-25.924;28.194;2022-09-28T06:57:01;85916.62;;;21.64;32.60
55486;BME280;49383;-25.924;28.194;2022-09-28T06:59:27;85914.61;;;21.98;32.67
55486;BME280;49383;-25.924;28.194;2022-09-28T07:01:53;85904.02;;;22.07;32.38
55486;BME280;49383;-25.924;28.194;2022-09-28T07:04:17;85901.64;;;22.25;32.57
55486;BME280;49383;-25.924;28.194;2022-09-28T07:06:46;85896.88;;;22.21;32.68
55486;BME280;49383;-25.924;28.194;2022-09-28T07:09:08;85899.33;;;22.32;33.31
55486;BME280;49383;-25.924;28.194;2022-09-28T07:11:37;85892.61;;;22.46;33.85
55486;BME280;49383;-25.924;28.194;2022-09-28T07:13:59;85892.10;;;22.57;33.94
55486;BME280;49383;-25.924;28.194;2022-09-28T07:16:25;85887.00;;;22.65;34.06
55486;BME280;49383;-25.924;28.194;2022-09-28T07:18:50;85883.65;;;22.71;34.20
55486;BME280;49383;-25.924;28.194;2022-09-28T07:21:15;85883.49;;;22.55;34.31
55486;BME280;49383;-25.924;28.194;2022-09-28T07:23:41;85879.10;;;22.85;34.11
55486;BME280;49383;-25.924;28.194;2022-09-28T07:26:07;85879.72;;;22.48;34.34
55486;BME280;49383;-25.924;28.194;2022-09-28T07:28:32;85882.24;;;22.77;34.23
55486;BME280;49383;-25.924;28.194;2022-09-28T07:30:58;85873.01;;;23.07;33.96
55486;BME280;49383;-25.924;28.194;2022-09-28T07:33:23;85874.78;;;23.09;33.59
55486;BME280;49383;-25.924;28.194;2022-09-28T07:35:52;85873.75;;;22.74;33.66
55486;BME280;49383;-25.924;28.194;2022-09-28T07:38:13;85868.44;;;22.83;33.20
55486;BME280;49383;-25.924;28.194;2022-09-28T07:40:39;85869.28;;;23.31;33.50
55486;BME280;49383;-25.924;28.194;2022-09-28T07:43:04;85864.28;;;23.32;33.55
55486;BME280;49383;-25.924;28.194;2022-09-28T07:45:30;85863.74;;;22.93;33.73
55486;BME280;49383;-25.924;28.194;2022-09-28T07:47:55;85861.36;;;23.14;33.09
55486;BME280;49383;-25.924;28.194;2022-09-28T07:50:20;85857.92;;;23.18;33.37
55486;BME280;49383;-25.924;28.194;2022-09-28T07:52:46;85857.50;;;23.47;33.52
55486;BME280;49383;-25.924;28.194;2022-09-28T07:55:10;85854.87;;;23.08;33.34
55486;BME280;49383;-25.924;28.194;2022-09-28T07:57:35;85849.09;;;23.15;33.23
55486;BME280;49383;-25.924;28.194;2022-09-28T08:00:02;85846.80;;;23.19;33.22
55486;BME280;49383;-25.924;28.194;2022-09-28T08:02:26;85843.78;;;23.69;32.87
55486;BME280;49383;-25.924;28.194;2022-09-28T08:04:52;85837.11;;;23.26;33.16
55486;BME280;49383;-25.924;28.194;2022-09-28T08:07:17;85835.16;;;23.31;32.95
55486;BME280;49383;-25.924;28.194;2022-09-28T08:09:42;85838.70;;;23.34;32.83
55486;BME280;49383;-25.924;28.194;2022-09-28T08:12:08;85836.32;;;23.37;32.92
55486;BME280;49383;-25.924;28.194;2022-09-28T08:14:32;85838.11;;;23.39;32.89
55486;BME280;49383;-25.924;28.194;2022-09-28T08:16:57;85834.05;;;23.41;32.82
55486;BME280;49383;-25.924;28.194;2022-09-28T08:19:23;85843.14;;;23.46;32.87
55486;BME280;49383;-25.924;28.194;2022-09-28T08:21:48;85844.11;;;23.48;32.76
55486;BME280;49383;-25.924;28.194;2022-09-28T08:24:14;85832.78;;;23.19;32.67
55486;BME280;49383;-25.924;28.194;2022-09-28T08:26:38;85831.69;;;23.50;32.91
55486;BME280;49383;-25.924;28.194;2022-09-28T08:29:04;85830.42;;;23.66;32.80
55486;BME280;49383;-25.924;28.194;2022-09-28T08:31:30;85826.50;;;23.62;32.83
55486;BME280;49383;-25.924;28.194;2022-09-28T08:33:56;85818.85;;;23.65;32.65
55486;BME280;49383;-25.924;28.194;2022-09-28T08:36:20;85818.55;;;23.68;32.78
55486;BME280;49383;-25.924;28.194;2022-09-28T08:38:46;85815.23;;;23.38;32.65
55486;BME280;49383;-25.924;28.194;2022-09-28T08:41:17;85808.77;;;23.77;32.66
55486;BME280;49383;-25.924;28.194;2022-09-28T08:43:49;85807.76;;;23.87;32.56
55486;BME280;49383;-25.924;28.194;2022-09-28T08:46:02;85802.60;;;23.92;32.52
55486;BME280;49383;-25.924;28.194;2022-09-28T08:48:31;85802.46;;;24.01;32.31
55486;BME280;49383;-25.924;28.194;2022-09-28T08:50:55;85800.27;;;24.19;32.24
55486;BME280;49383;-25.924;28.194;2022-09-28T08:53:30;85805.01;;;24.09;32.31
55486;BME280;49383;-25.924;28.194;2022-09-28T08:55:44;85804.92;;;23.82;32.29
55486;BME280;49383;-25.924;28.194;2022-09-28T08:58:12;85805.21;;;23.98;32.32
55486;BME280;49383;-25.924;28.194;2022-09-28T09:00:38;85803.56;;;24.07;32.25
55486;BME280;49383;-25.924;28.194;2022-09-28T09:03:04;85808.06;;;24.05;32.12
55486;BME280;49383;-25.924;28.194;2022-09-28T09:05:44;85807.13;;;24.16;32.17
55486;BME280;49383;-25.924;28.194;2022-09-28T09:07:58;85800.83;;;24.14;32.12
55486;BME280;49383;-25.924;28.194;2022-09-28T09:12:45;85797.84;;;24.02;31.98
55486;BME280;49383;-25.924;28.194;2022-09-28T09:15:15;85800.23;;;24.23;32.01
55486;BME280;49383;-25.924;28.194;2022-09-28T09:17:37;85795.45;;;24.28;31.98
55486;BME280;49383;-25.924;28.194;2022-09-28T09:20:03;85796.43;;;24.20;32.08
55486;BME280;49383;-25.924;28.194;2022-09-28T09:22:30;85796.38;;;23.97;32.08
55486;BME280;49383;-25.924;28.194;2022-09-28T09:24:49;85793.56;;;24.10;32.24
55486;BME280;49383;-25.924;28.194;2022-09-28T09:29:48;85781.76;;;24.26;32.37
55486;BME280;49383;-25.924;28.194;2022-09-28T09:32:13;85779.31;;;24.20;32.47
55486;BME280;49383;-25.924;28.194;2022-09-28T09:37:04;85778.32;;;23.86;32.73
55486;BME280;49383;-25.924;28.194;2022-09-28T09:39:31;85775.58;;;23.79;32.90
55486;BME280;49383;-25.924;28.194;2022-09-28T09:41:53;85775.08;;;23.64;33.12
55486;BME280;49383;-25.924;28.194;2022-09-28T09:44:21;85765.55;;;24.00;33.28
55486;BME280;49383;-25.924;28.194;2022-09-28T09:46:38;85769.13;;;23.85;33.46
55486;BME280;49383;-25.924;28.194;2022-09-28T09:49:03;85775.02;;;23.83;33.55
55486;BME280;49383;-25.924;28.194;2022-09-28T09:51:32;85769.74;;;23.60;33.60
55486;BME280;49383;-25.924;28.194;2022-09-28T09:53:56;85767.60;;;23.93;33.48
55486;BME280;49383;-25.924;28.194;2022-09-28T09:56:20;85757.98;;;23.74;33.64
55486;BME280;49383;-25.924;28.194;2022-09-28T09:58:45;85751.61;;;23.73;33.62
55486;BME280;49383;-25.924;28.194;2022-09-28T10:01:10;85755.54;;;23.63;33.78
55486;BME280;49383;-25.924;28.194;2022-09-28T10:03:35;85755.74;;;23.42;34.09
55486;BME280;49383;-25.924;28.194;2022-09-28T10:06:00;85756.79;;;23.62;34.23
55486;BME280;49383;-25.924;28.194;2022-09-28T10:08:25;85747.86;;;23.60;34.27
55486;BME280;49383;-25.924;28.194;2022-09-28T10:10:52;85739.76;;;23.22;34.34
55486;BME280;49383;-25.924;28.194;2022-09-28T10:13:14;85738.80;;;23.49;34.28
55486;BME280;49383;-25.924;28.194;2022-09-28T10:15:40;85730.07;;;23.18;34.25
55486;BME280;49383;-25.924;28.194;2022-09-28T10:18:14;85726.78;;;23.20;34.16
55486;BME280;49383;-25.924;28.194;2022-09-28T10:20:33;85719.46;;;23.14;34.15
55486;BME280;49383;-25.924;28.194;2022-09-28T10:22:57;85716.18;;;23.46;34.07
55486;BME280;49383;-25.924;28.194;2022-09-28T10:25:20;85713.58;;;23.39;34.16
55486;BME280;49383;-25.924;28.194;2022-09-28T10:27:47;85715.37;;;23.31;34.24
55486;BME280;49383;-25.924;28.194;2022-09-28T10:30:16;85714.91;;;23.36;34.21
55486;BME280;49383;-25.924;28.194;2022-09-28T10:32:39;85715.54;;;23.39;34.17
55486;BME280;49383;-25.924;28.194;2022-09-28T10:37:25;85692.03;;;23.03;34.10
55486;BME280;49383;-25.924;28.194;2022-09-28T10:39:51;85710.91;;;23.34;34.09
55486;BME280;49383;-25.924;28.194;2022-09-28T10:42:21;85694.93;;;23.26;34.11
55486;BME280;49383;-25.924;28.194;2022-09-28T10:44:50;85674.94;;;23.26;34.19
55486;BME280;49383;-25.924;28.194;2022-09-28T10:47:13;85670.93;;;23.06;33.72
55486;BME280;49383;-25.924;28.194;2022-09-28T10:49:38;85670.46;;;23.19;33.49
55486;BME280;49383;-25.924;28.194;2022-09-28T10:51:57;85665.02;;;23.22;33.39
55486;BME280;49383;-25.924;28.194;2022-09-28T10:54:24;85663.53;;;23.30;33.34
55486;BME280;49383;-25.924;28.194;2022-09-28T10:56:49;85674.99;;;23.24;33.48
55486;BME280;49383;-25.924;28.194;2022-09-28T11:01:39;85665.19;;;23.39;33.28
55486;BME280;49383;-25.924;28.194;2022-09-28T11:04:06;85662.06;;;23.35;33.29
55486;BME280;49383;-25.924;28.194;2022-09-28T11:06:31;85665.17;;;23.66;33.24
55486;BME280;49383;-25.924;28.194;2022-09-28T11:08:57;85665.87;;;23.29;33.36
55486;BME280;49383;-25.924;28.194;2022-09-28T11:11:20;85667.61;;;23.36;33.20
55486;BME280;49383;-25.924;28.194;2022-09-28T11:13:47;85656.66;;;23.37;33.12
55486;BME280;49383;-25.924;28.194;2022-09-28T11:16:19;85651.67;;;23.48;32.96
55486;BME280;49383;-25.924;28.194;2022-09-28T11:18:36;85651.47;;;23.62;32.86
55486;BME280;49383;-25.924;28.194;2022-09-28T11:21:08;85652.91;;;23.77;32.73
55486;BME280;49383;-25.924;28.194;2022-09-28T11:23:29;85650.88;;;23.77;32.59
55486;BME280;49383;-25.924;28.194;2022-09-28T11:25:58;85646.00;;;23.74;32.49
55486;BME280;49383;-25.924;28.194;2022-09-28T11:28:22;85639.61;;;23.33;32.29
55486;BME280;49383;-25.924;28.194;2022-09-28T11:30:46;85637.54;;;23.75;32.16
55486;BME280;49383;-25.924;28.194;2022-09-28T11:33:12;85625.31;;;23.53;32.09
55486;BME280;49383;-25.924;28.194;2022-09-28T11:35:44;85627.08;;;23.87;31.88
55486;BME280;49383;-25.924;28.194;2022-09-28T11:38:09;85613.82;;;23.71;31.72
55486;BME280;49383;-25.924;28.194;2022-09-28T11:40:33;85611.77;;;23.79;31.66
55486;BME280;49383;-25.924;28.194;2022-09-28T11:42:56;85606.10;;;23.84;31.79
55486;BME280;49383;-25.924;28.194;2022-09-28T11:45:28;85605.38;;;23.82;31.73
55486;BME280;49383;-25.924;28.194;2022-09-28T11:47:49;85598.91;;;23.58;31.79
55486;BME280;49383;-25.924;28.194;2022-09-28T11:50:17;85589.80;;;23.75;31.87
55486;BME280;49383;-25.924;28.194;2022-09-28T11:52:38;85595.61;;;23.76;31.98
55486;BME280;49383;-25.924;28.194;2022-09-28T11:55:00;85592.38;;;23.59;32.29
55486;BME280;49383;-25.924;28.194;2022-09-28T11:57:29;85590.21;;;23.23;32.49
55486;BME280;49383;-25.924;28.194;2022-09-28T11:59:55;85581.69;;;23.45;32.44
55486;BME280;49383;-25.924;28.194;2022-09-28T12:02:18;85580.86;;;23.10;32.37
55486;BME280;49383;-25.924;28.194;2022-09-28T12:04:42;85585.16;;;23.11;32.26
55486;BME280;49383;-25.924;28.194;2022-09-28T12:07:09;85584.34;;;23.38;31.92
55486;BME280;49383;-25.924;28.194;2022-09-28T12:09:35;85585.73;;;23.33;31.80
55486;BME280;49383;-25.924;28.194;2022-09-28T12:12:00;85587.22;;;23.49;31.54
55486;BME280;49383;-25.924;28.194;2022-09-28T12:14:27;85574.11;;;22.98;31.32
55486;BME280;49383;-25.924;28.194;2022-09-28T12:16:52;85566.61;;;23.27;31.26
55486;BME280;49383;-25.924;28.194;2022-09-28T12:19:17;85564.61;;;23.35;31.16
55486;BME280;49383;-25.924;28.194;2022-09-28T12:21:41;85566.40;;;23.40;31.03
55486;BME280;49383;-25.924;28.194;2022-09-28T12:24:10;85565.47;;;23.32;30.91
55486;BME280;49383;-25.924;28.194;2022-09-28T12:26:35;85559.51;;;23.08;30.86
55486;BME280;49383;-25.924;28.194;2022-09-28T12:28:58;85561.79;;;23.13;30.54
55486;BME280;49383;-25.924;28.194;2022-09-28T12:31:22;85556.35;;;23.17;30.43
55486;BME280;49383;-25.924;28.194;2022-09-28T12:33:48;85546.02;;;23.37;30.33
55486;BME280;49383;-25.924;28.194;2022-09-28T12:36:18;85554.36;;;23.43;30.18
55486;BME280;49383;-25.924;28.194;2022-09-28T12:38:46;85548.03;;;23.34;30.22
55486;BME280;49383;-25.924;28.194;2022-09-28T12:41:07;85538.82;;;22.85;30.12